PWSweather.com
Personal Weather Stations
Station Observations
MAKAWAOWX1
Up Country Maui, Makawao, HI 96768

Up Country MauiMakawao, HI 96768

Lat: 20.856944, Lon: -156.3149667

Elevation: 1500

Station Type: Davis Vantage Pro

Latest ConditionsUpdated 7:20:02 AM HST Tuesday, Mar 26, 2019
Currently Today's Max Today's Min Today's Average
Temperature 63.1°F17.3°C 63.5°F17.5°C 60.8°F16.0°C 62.6°F17.0°C
Dew Point 59.8°F15.4°C 59.8°F15.4°C 56.6°F13.7°C 58.4°F14.7°C
Winds 9.2 mph ENE14.8 kmh ENE 11.5 mph -18.5 kmh - - 6.1 mph 9.8 kmh
Wind Gusts 12.7 mph20.4 kmh 17.3 mph27.8 kmh - -
Humidity 89% 89% 82% 86%
Pressure 29.98 in1015.2 mb 30.00 in1015.9 mb 29.93 in1013.5 mb -
Hour Temp Dew Point Humidity Winds Wind Gusts Pressure Precip Precip Rate Daily Precip Total
07:20 AM 63.1°F17.3°C 59.8°F15.4°C 89% 9.2 mph ENE14.8 kmh ENE 12.7 mph20.4 kmh 29.98 in1015.2 mb - 0.00 in0.0 mm 0.00 in0.0 mm
07:10 AM 62.9°F17.2°C 59.6°F15.3°C 89% 5.8 mph ENE9.3 kmh ENE 8.1 mph13.0 kmh 29.97 in1014.9 mb - 0.00 in0.0 mm 0.00 in0.0 mm
07:00 AM 62.9°F17.2°C 59.3°F15.2°C 88% 8.1 mph NE13.0 kmh NE 12.7 mph20.4 kmh 29.97 in1014.9 mb - 0.00 in0.0 mm 0.00 in0.0 mm
06:50 AM 62.9°F17.2°C 59.3°F15.2°C 88% 5.8 mph ENE9.3 kmh ENE 11.5 mph18.5 kmh 29.97 in1014.9 mb - 0.00 in0.0 mm 0.00 in0.0 mm
06:40 AM 62.8°F17.1°C 59.5°F15.3°C 89% 8.1 mph NE13.0 kmh NE 12.7 mph20.4 kmh 29.97 in1014.9 mb - 0.00 in0.0 mm 0.00 in0.0 mm
06:30 AM 62.7°F17.1°C 59.4°F15.2°C 89% 6.9 mph ENE11.1 kmh ENE 15.0 mph24.1 kmh 29.96 in1014.6 mb - 0.00 in0.0 mm 0.00 in0.0 mm
06:20 AM 62.7°F17.1°C 59.1°F15.1°C 88% 4.6 mph ENE7.4 kmh ENE 8.1 mph13.0 kmh 29.96 in1014.6 mb - 0.00 in0.0 mm 0.00 in0.0 mm
06:10 AM 62.9°F17.2°C 59.3°F15.2°C 88% 5.8 mph E9.3 kmh E 5.8 mph9.3 kmh 29.96 in1014.6 mb - 0.00 in0.0 mm 0.00 in0.0 mm
06:00 AM 62.9°F17.2°C 59.0°F15.0°C 87% 8.1 mph ENE13.0 kmh ENE 12.7 mph20.4 kmh 29.95 in1014.2 mb - 0.00 in0.0 mm 0.00 in0.0 mm
05:50 AM 62.6°F17.0°C 58.6°F14.8°C 87% 8.1 mph ENE13.0 kmh ENE 13.8 mph22.2 kmh 29.95 in1014.2 mb - 0.00 in0.0 mm 0.00 in0.0 mm
05:40 AM 62.2°F16.8°C 58.3°F14.6°C 87% 8.1 mph NE13.0 kmh NE 11.5 mph18.5 kmh 29.95 in1014.2 mb - 0.00 in0.0 mm 0.00 in0.0 mm
05:30 AM 62.0°F16.7°C 57.4°F14.1°C 85% 4.6 mph NE7.4 kmh NE 9.2 mph14.8 kmh 29.95 in1014.2 mb - 0.00 in0.0 mm 0.00 in0.0 mm
05:20 AM 62.3°F16.8°C 57.7°F14.3°C 85% 4.6 mph E7.4 kmh E 4.6 mph7.4 kmh 29.95 in1014.2 mb - 0.00 in0.0 mm 0.00 in0.0 mm
05:10 AM 62.1°F16.7°C 58.1°F14.5°C 87% 4.6 mph ENE7.4 kmh ENE 11.5 mph18.5 kmh 29.94 in1013.9 mb - 0.00 in0.0 mm 0.00 in0.0 mm
05:00 AM 61.5°F16.4°C 57.9°F14.4°C 88% 5.8 mph ENE9.3 kmh ENE 9.2 mph14.8 kmh 29.93 in1013.5 mb - 0.00 in0.0 mm 0.00 in0.0 mm
04:50 AM 60.8°F16.0°C 57.2°F14.0°C 88% 5.8 mph E9.3 kmh E 8.1 mph13.0 kmh 29.93 in1013.5 mb - 0.00 in0.0 mm 0.00 in0.0 mm
04:40 AM 60.8°F16.0°C 56.6°F13.7°C 86% 3.5 mph E5.6 kmh E 3.5 mph5.6 kmh 29.93 in1013.5 mb - 0.00 in0.0 mm 0.00 in0.0 mm
04:30 AM 61.5°F16.4°C 56.9°F13.8°C 85% Calm Calm -- 29.93 in1013.5 mb - 0.00 in0.0 mm 0.00 in0.0 mm
04:20 AM 62.2°F16.8°C 57.6°F14.2°C 85% Calm Calm -- 29.93 in1013.5 mb - 0.00 in0.0 mm 0.00 in0.0 mm
04:10 AM 62.7°F17.1°C 58.5°F14.7°C 86% 4.6 mph SE7.4 kmh SE 5.8 mph9.3 kmh 29.93 in1013.5 mb - 0.00 in0.0 mm 0.00 in0.0 mm
04:00 AM 62.9°F17.2°C 59.0°F15.0°C 87% 4.6 mph NE7.4 kmh NE 8.1 mph13.0 kmh 29.93 in1013.5 mb - 0.00 in0.0 mm 0.00 in0.0 mm
03:50 AM 62.9°F17.2°C 58.6°F14.8°C 86% 8.1 mph E13.0 kmh E 12.7 mph20.4 kmh 29.93 in1013.5 mb - 0.00 in0.0 mm 0.00 in0.0 mm
03:40 AM 63.1°F17.3°C 58.5°F14.7°C 85% 5.8 mph NE9.3 kmh NE 11.5 mph18.5 kmh 29.93 in1013.5 mb - 0.00 in0.0 mm 0.00 in0.0 mm
03:30 AM 62.9°F17.2°C 58.0°F14.4°C 84% 6.9 mph E11.1 kmh E 6.9 mph11.1 kmh 29.93 in1013.5 mb - 0.00 in0.0 mm 0.00 in0.0 mm
03:20 AM 62.8°F17.1°C 57.9°F14.4°C 84% 4.6 mph E7.4 kmh E 11.5 mph18.5 kmh 29.93 in1013.5 mb - 0.00 in0.0 mm 0.00 in0.0 mm
03:10 AM 63.0°F17.2°C 58.1°F14.5°C 84% 6.9 mph ENE11.1 kmh ENE 11.5 mph18.5 kmh 29.94 in1013.9 mb - 0.00 in0.0 mm 0.00 in0.0 mm
03:00 AM 63.2°F17.3°C 57.6°F14.2°C 82% 4.6 mph ENE7.4 kmh ENE 8.1 mph13.0 kmh 29.94 in1013.9 mb - 0.00 in0.0 mm 0.00 in0.0 mm
02:50 AM 63.3°F17.4°C 57.7°F14.3°C 82% 9.2 mph NE14.8 kmh NE 11.5 mph18.5 kmh 29.94 in1013.9 mb - 0.00 in0.0 mm 0.00 in0.0 mm
02:40 AM 63.2°F17.3°C 57.6°F14.2°C 82% 5.8 mph E9.3 kmh E 10.4 mph16.7 kmh 29.95 in1014.2 mb - 0.00 in0.0 mm 0.00 in0.0 mm
02:30 AM 63.5°F17.5°C 57.9°F14.4°C 82% 2.3 mph E3.7 kmh E 3.5 mph5.6 kmh 29.95 in1014.2 mb - 0.00 in0.0 mm 0.00 in0.0 mm
02:20 AM 63.4°F17.4°C 58.1°F14.5°C 83% 6.9 mph E11.1 kmh E 11.5 mph18.5 kmh 29.95 in1014.2 mb - 0.00 in0.0 mm 0.00 in0.0 mm
02:10 AM 63.4°F17.4°C 58.1°F14.5°C 83% 5.8 mph E9.3 kmh E 9.2 mph14.8 kmh 29.96 in1014.6 mb - 0.00 in0.0 mm 0.00 in0.0 mm
02:00 AM 63.4°F17.4°C 58.5°F14.7°C 84% 9.2 mph E14.8 kmh E 13.8 mph22.2 kmh 29.97 in1014.9 mb - 0.00 in0.0 mm 0.00 in0.0 mm
01:50 AM 63.1°F17.3°C 58.5°F14.7°C 85% 10.4 mph E16.7 kmh E 15.0 mph24.1 kmh 29.97 in1014.9 mb - 0.00 in0.0 mm 0.00 in0.0 mm
01:40 AM 63.2°F17.3°C 58.9°F14.9°C 86% 5.8 mph NE9.3 kmh NE 9.2 mph14.8 kmh 29.97 in1014.9 mb - 0.00 in0.0 mm 0.00 in0.0 mm
01:30 AM 63.1°F17.3°C 58.5°F14.7°C 85% 11.5 mph ENE18.5 kmh ENE 16.1 mph25.9 kmh 29.98 in1015.2 mb - 0.00 in0.0 mm 0.00 in0.0 mm
01:20 AM 63.2°F17.3°C 58.3°F14.6°C 84% 6.9 mph E11.1 kmh E 6.9 mph11.1 kmh 29.98 in1015.2 mb - 0.00 in0.0 mm 0.00 in0.0 mm
01:10 AM 63.4°F17.4°C 58.5°F14.7°C 84% 6.9 mph ENE11.1 kmh ENE 8.1 mph13.0 kmh 29.98 in1015.2 mb - 0.00 in0.0 mm 0.00 in0.0 mm
01:00 AM 63.3°F17.4°C 58.7°F14.8°C 85% 6.9 mph NE11.1 kmh NE 12.7 mph20.4 kmh 29.99 in1015.6 mb - 0.00 in0.0 mm 0.00 in0.0 mm
12:50 AM 63.0°F17.2°C 59.1°F15.1°C 87% 4.6 mph E7.4 kmh E 11.5 mph18.5 kmh 29.99 in1015.6 mb - 0.00 in0.0 mm 0.00 in0.0 mm
12:40 AM 62.6°F17.0°C 59.3°F15.2°C 89% 10.4 mph E16.7 kmh E 15.0 mph24.1 kmh 30.00 in1015.9 mb - 0.00 in0.0 mm 0.00 in0.0 mm
12:30 AM 62.0°F16.7°C 58.7°F14.8°C 89% 5.8 mph E9.3 kmh E 11.5 mph18.5 kmh 30.00 in1015.9 mb - 0.00 in0.0 mm 0.00 in0.0 mm
12:20 AM 61.2°F16.2°C 57.6°F14.2°C 88% 9.2 mph ESE14.8 kmh ESE 17.3 mph27.8 kmh 30.00 in1015.9 mb - 0.00 in0.0 mm 0.00 in0.0 mm
12:10 AM 61.3°F16.3°C 57.4°F14.1°C 87% 1.2 mph E1.9 kmh E 3.5 mph5.6 kmh 30.00 in1015.9 mb - 0.00 in0.0 mm 0.00 in0.0 mm
12:00 AM 61.8°F16.6°C 57.6°F14.2°C 86% Calm Calm 3.5 mph5.6 kmh 30.00 in1015.9 mb - 0.00 in0.0 mm 0.00 in0.0 mm